sensor_id;sensor_type;location;lat;lon;timestamp;temperature;humidity
22081;DHT22;11207;59.512;18.050;2023-02-02T00:00:08;-0.50;99.90
22081;DHT22;11207;59.512;18.050;2023-02-02T00:02:34;-0.50;99.90
22081;DHT22;11207;59.512;18.050;2023-02-02T00:04:59;-0.50;99.90
22081;DHT22;11207;59.512;18.050;2023-02-02T00:07:25;-0.50;99.90
22081;DHT22;11207;59.512;18.050;2023-02-02T00:09:50;-0.50;99.90
22081;DHT22;11207;59.512;18.050;2023-02-02T00:12:16;-0.50;99.90
22081;DHT22;11207;59.512;18.050;2023-02-02T00:14:41;-0.60;99.90
22081;DHT22;11207;59.512;18.050;2023-02-02T00:17:09;-0.60;99.90
22081;DHT22;11207;59.512;18.050;2023-02-02T00:19:35;-0.60;99.90
22081;DHT22;11207;59.512;18.050;2023-02-02T00:22:00;-0.60;99.90
22081;DHT22;11207;59.512;18.050;2023-02-02T00:24:26;-0.70;99.90
22081;DHT22;11207;59.512;18.050;2023-02-02T00:26:55;-0.70;99.90
22081;DHT22;11207;59.512;18.050;2023-02-02T00:29:24;-0.70;99.90
22081;DHT22;11207;59.512;18.050;2023-02-02T00:31:50;-0.80;99.90
22081;DHT22;11207;59.512;18.050;2023-02-02T00:34:16;-0.80;99.90
22081;DHT22;11207;59.512;18.050;2023-02-02T00:36:43;-0.80;99.90
22081;DHT22;11207;59.512;18.050;2023-02-02T00:39:10;-0.80;99.90
22081;DHT22;11207;59.512;18.050;2023-02-02T00:41:38;-0.90;99.90
22081;DHT22;11207;59.512;18.050;2023-02-02T00:44:04;-0.90;99.90
22081;DHT22;11207;59.512;18.050;2023-02-02T00:46:48;-1.00;99.90
22081;DHT22;11207;59.512;18.050;2023-02-02T00:49:13;-1.00;99.90
22081;DHT22;11207;59.512;18.050;2023-02-02T00:51:39;-1.00;99.90
22081;DHT22;11207;59.512;18.050;2023-02-02T00:54:05;-1.10;99.90
22081;DHT22;11207;59.512;18.050;2023-02-02T00:56:31;-1.20;99.90
22081;DHT22;11207;59.512;18.050;2023-02-02T00:58:56;-1.20;99.90
22081;DHT22;11207;59.512;18.050;2023-02-02T01:01:22;-1.30;99.90
22081;DHT22;11207;59.512;18.050;2023-02-02T01:03:50;-1.40;99.90
22081;DHT22;11207;59.512;18.050;2023-02-02T01:06:16;-1.50;99.90
22081;DHT22;11207;59.512;18.050;2023-02-02T01:08:42;-1.50;99.90
22081;DHT22;11207;59.512;18.050;2023-02-02T01:11:08;-1.60;99.90
22081;DHT22;11207;59.512;18.050;2023-02-02T01:13:34;-1.60;99.90
22081;DHT22;11207;59.512;18.050;2023-02-02T01:16:00;-1.80;99.90
22081;DHT22;11207;59.512;18.050;2023-02-02T01:18:27;-1.80;99.90
22081;DHT22;11207;59.512;18.050;2023-02-02T01:21:01;-1.90;99.90
22081;DHT22;11207;59.512;18.050;2023-02-02T01:23:27;-2.00;99.90
22081;DHT22;11207;59.512;18.050;2023-02-02T01:25:54;-1.90;99.90
22081;DHT22;11207;59.512;18.050;2023-02-02T01:28:21;-1.90;99.90
22081;DHT22;11207;59.512;18.050;2023-02-02T01:30:46;-2.00;99.90
22081;DHT22;11207;59.512;18.050;2023-02-02T01:33:13;-2.10;99.90
22081;DHT22;11207;59.512;18.050;2023-02-02T01:35:45;-2.20;99.90
22081;DHT22;11207;59.512;18.050;2023-02-02T01:38:11;-2.20;99.90
22081;DHT22;11207;59.512;18.050;2023-02-02T01:40:36;-2.30;99.90
22081;DHT22;11207;59.512;18.050;2023-02-02T01:45:46;-2.40;99.90
22081;DHT22;11207;59.512;18.050;2023-02-02T01:48:12;-2.40;99.90
22081;DHT22;11207;59.512;18.050;2023-02-02T01:50:39;-2.40;99.90
22081;DHT22;11207;59.512;18.050;2023-02-02T01:53:06;-2.50;99.90
22081;DHT22;11207;59.512;18.050;2023-02-02T01:55:34;-2.60;99.90
22081;DHT22;11207;59.512;18.050;2023-02-02T01:58:02;-2.60;99.90
22081;DHT22;11207;59.512;18.050;2023-02-02T02:00:29;-2.60;99.90
22081;DHT22;11207;59.512;18.050;2023-02-02T02:02:58;-2.70;99.90
22081;DHT22;11207;59.512;18.050;2023-02-02T02:05:29;-2.70;99.90
22081;DHT22;11207;59.512;18.050;2023-02-02T02:08:12;-2.80;99.90
22081;DHT22;11207;59.512;18.050;2023-02-02T02:10:39;-2.80;99.90
22081;DHT22;11207;59.512;18.050;2023-02-02T02:13:05;-2.80;99.90
22081;DHT22;11207;59.512;18.050;2023-02-02T02:15:36;-2.90;99.90
22081;DHT22;11207;59.512;18.050;2023-02-02T02:18:39;-2.90;99.90
22081;DHT22;11207;59.512;18.050;2023-02-02T02:21:58;-2.90;99.90
22081;DHT22;11207;59.512;18.050;2023-02-02T02:30:58;-2.90;99.90
22081;DHT22;11207;59.512;18.050;2023-02-02T02:33:39;-2.90;99.90
22081;DHT22;11207;59.512;18.050;2023-02-02T02:36:33;-2.80;99.90
22081;DHT22;11207;59.512;18.050;2023-02-02T02:39:24;-2.70;99.90
22081;DHT22;11207;59.512;18.050;2023-02-02T02:41:55;-2.60;99.90
22081;DHT22;11207;59.512;18.050;2023-02-02T02:44:22;-2.50;99.90
22081;DHT22;11207;59.512;18.050;2023-02-02T02:46:49;-2.40;99.90
22081;DHT22;11207;59.512;18.050;2023-02-02T02:49:16;-2.40;99.90
22081;DHT22;11207;59.512;18.050;2023-02-02T02:54:11;-2.20;99.90
22081;DHT22;11207;59.512;18.050;2023-02-02T02:59:35;-2.20;99.90
22081;DHT22;11207;59.512;18.050;2023-02-02T03:02:42;-2.10;99.90
22081;DHT22;11207;59.512;18.050;2023-02-02T03:05:29;-2.10;99.90
22081;DHT22;11207;59.512;18.050;2023-02-02T03:10:28;-2.00;99.90
22081;DHT22;11207;59.512;18.050;2023-02-02T03:12:55;-2.00;99.90
22081;DHT22;11207;59.512;18.050;2023-02-02T03:15:22;-2.00;99.90
22081;DHT22;11207;59.512;18.050;2023-02-02T03:17:49;-2.00;99.90
22081;DHT22;11207;59.512;18.050;2023-02-02T03:20:16;-1.90;99.90
22081;DHT22;11207;59.512;18.050;2023-02-02T03:22:42;-1.80;99.90
22081;DHT22;11207;59.512;18.050;2023-02-02T03:25:07;-1.80;99.90
22081;DHT22;11207;59.512;18.050;2023-02-02T03:27:36;-1.80;99.90
22081;DHT22;11207;59.512;18.050;2023-02-02T03:30:04;-1.80;99.90
22081;DHT22;11207;59.512;18.050;2023-02-02T03:32:30;-1.80;99.90
22081;DHT22;11207;59.512;18.050;2023-02-02T03:34:55;-1.70;99.90
22081;DHT22;11207;59.512;18.050;2023-02-02T03:37:21;-1.70;99.90
22081;DHT22;11207;59.512;18.050;2023-02-02T03:39:46;-1.70;99.90
22081;DHT22;11207;59.512;18.050;2023-02-02T03:42:12;-1.60;99.90
22081;DHT22;11207;59.512;18.050;2023-02-02T03:44:37;-1.60;99.90
22081;DHT22;11207;59.512;18.050;2023-02-02T03:47:03;-1.60;99.90
22081;DHT22;11207;59.512;18.050;2023-02-02T03:49:29;-1.60;99.90
22081;DHT22;11207;59.512;18.050;2023-02-02T03:51:54;-1.60;99.90
22081;DHT22;11207;59.512;18.050;2023-02-02T03:54:20;-1.60;99.90
22081;DHT22;11207;59.512;18.050;2023-02-02T03:56:45;-1.70;99.90
22081;DHT22;11207;59.512;18.050;2023-02-02T03:59:11;-1.60;99.90
22081;DHT22;11207;59.512;18.050;2023-02-02T04:01:36;-1.70;99.90
22081;DHT22;11207;59.512;18.050;2023-02-02T04:04:02;-1.70;99.90
22081;DHT22;11207;59.512;18.050;2023-02-02T04:06:27;-1.70;99.90
22081;DHT22;11207;59.512;18.050;2023-02-02T04:08:53;-1.70;99.90
22081;DHT22;11207;59.512;18.050;2023-02-02T04:11:19;-1.70;99.90
22081;DHT22;11207;59.512;18.050;2023-02-02T04:13:45;-1.70;99.90
22081;DHT22;11207;59.512;18.050;2023-02-02T04:16:11;-1.70;99.90
22081;DHT22;11207;59.512;18.050;2023-02-02T04:18:36;-1.60;99.90
22081;DHT22;11207;59.512;18.050;2023-02-02T04:21:03;-1.70;99.90
22081;DHT22;11207;59.512;18.050;2023-02-02T04:23:29;-1.70;99.90
22081;DHT22;11207;59.512;18.050;2023-02-02T04:25:55;-1.70;99.90
22081;DHT22;11207;59.512;18.050;2023-02-02T04:28:22;-1.70;99.90
22081;DHT22;11207;59.512;18.050;2023-02-02T04:30:52;-1.70;99.90
22081;DHT22;11207;59.512;18.050;2023-02-02T04:33:19;-1.70;99.90
22081;DHT22;11207;59.512;18.050;2023-02-02T04:35:44;-1.70;99.90
22081;DHT22;11207;59.512;18.050;2023-02-02T04:38:10;-1.70;99.90
22081;DHT22;11207;59.512;18.050;2023-02-02T04:40:41;-1.70;99.90
22081;DHT22;11207;59.512;18.050;2023-02-02T04:43:07;-1.70;99.90
22081;DHT22;11207;59.512;18.050;2023-02-02T04:45:33;-1.70;99.90
22081;DHT22;11207;59.512;18.050;2023-02-02T04:47:58;-1.70;99.90
22081;DHT22;11207;59.512;18.050;2023-02-02T04:50:24;-1.70;99.90
22081;DHT22;11207;59.512;18.050;2023-02-02T04:52:50;-1.70;99.90
22081;DHT22;11207;59.512;18.050;2023-02-02T04:55:16;-1.70;99.90
22081;DHT22;11207;59.512;18.050;2023-02-02T04:57:41;-1.70;99.90
22081;DHT22;11207;59.512;18.050;2023-02-02T05:00:07;-1.80;99.90
22081;DHT22;11207;59.512;18.050;2023-02-02T05:02:38;-1.70;99.90
22081;DHT22;11207;59.512;18.050;2023-02-02T05:05:06;-1.70;99.90
22081;DHT22;11207;59.512;18.050;2023-02-02T05:07:32;-1.70;99.90
22081;DHT22;11207;59.512;18.050;2023-02-02T05:09:58;-1.70;99.90
22081;DHT22;11207;59.512;18.050;2023-02-02T05:12:24;-1.70;99.90
22081;DHT22;11207;59.512;18.050;2023-02-02T05:14:49;-1.70;99.90
22081;DHT22;11207;59.512;18.050;2023-02-02T05:17:15;-1.70;99.90
22081;DHT22;11207;59.512;18.050;2023-02-02T05:19:41;-1.70;99.90
22081;DHT22;11207;59.512;18.050;2023-02-02T05:22:07;-1.70;99.90
22081;DHT22;11207;59.512;18.050;2023-02-02T05:24:32;-1.70;99.90
22081;DHT22;11207;59.512;18.050;2023-02-02T05:26:58;-1.70;99.90
22081;DHT22;11207;59.512;18.050;2023-02-02T05:29:26;-1.80;99.90
22081;DHT22;11207;59.512;18.050;2023-02-02T05:31:52;-1.70;99.90
22081;DHT22;11207;59.512;18.050;2023-02-02T05:34:18;-1.80;99.90
22081;DHT22;11207;59.512;18.050;2023-02-02T05:36:43;-1.70;99.90
22081;DHT22;11207;59.512;18.050;2023-02-02T05:39:09;-1.80;99.90
22081;DHT22;11207;59.512;18.050;2023-02-02T05:41:35;-1.80;99.90
22081;DHT22;11207;59.512;18.050;2023-02-02T05:44:01;-1.80;99.90
22081;DHT22;11207;59.512;18.050;2023-02-02T05:46:27;-1.80;99.90
22081;DHT22;11207;59.512;18.050;2023-02-02T05:48:53;-1.80;99.90
22081;DHT22;11207;59.512;18.050;2023-02-02T05:51:21;-1.80;99.90
22081;DHT22;11207;59.512;18.050;2023-02-02T05:53:48;-1.80;99.90
22081;DHT22;11207;59.512;18.050;2023-02-02T05:56:13;-1.80;99.90
22081;DHT22;11207;59.512;18.050;2023-02-02T05:58:40;-1.80;99.90
22081;DHT22;11207;59.512;18.050;2023-02-02T06:01:06;-1.80;99.90
22081;DHT22;11207;59.512;18.050;2023-02-02T06:03:31;-1.80;99.90
22081;DHT22;11207;59.512;18.050;2023-02-02T06:05:57;-1.80;99.90
22081;DHT22;11207;59.512;18.050;2023-02-02T06:08:23;-1.80;99.90
22081;DHT22;11207;59.512;18.050;2023-02-02T06:10:48;-1.80;99.90
22081;DHT22;11207;59.512;18.050;2023-02-02T06:13:14;-1.80;99.90
22081;DHT22;11207;59.512;18.050;2023-02-02T06:15:39;-1.80;99.90
22081;DHT22;11207;59.512;18.050;2023-02-02T06:18:07;-1.80;99.90
22081;DHT22;11207;59.512;18.050;2023-02-02T06:20:33;-1.90;99.90
22081;DHT22;11207;59.512;18.050;2023-02-02T06:23:00;-2.00;99.90
22081;DHT22;11207;59.512;18.050;2023-02-02T06:25:26;-2.10;99.90
22081;DHT22;11207;59.512;18.050;2023-02-02T06:27:59;-2.10;99.90
22081;DHT22;11207;59.512;18.050;2023-02-02T06:30:26;-2.20;99.90
22081;DHT22;11207;59.512;18.050;2023-02-02T06:32:51;-2.20;99.90
22081;DHT22;11207;59.512;18.050;2023-02-02T06:35:17;-2.30;99.90
22081;DHT22;11207;59.512;18.050;2023-02-02T06:37:44;-2.30;99.90
22081;DHT22;11207;59.512;18.050;2023-02-02T06:40:10;-2.20;99.90
22081;DHT22;11207;59.512;18.050;2023-02-02T06:42:36;-2.20;99.90
22081;DHT22;11207;59.512;18.050;2023-02-02T06:45:03;-2.20;99.90
22081;DHT22;11207;59.512;18.050;2023-02-02T06:47:30;-2.20;99.90
22081;DHT22;11207;59.512;18.050;2023-02-02T06:49:56;-2.10;99.90
22081;DHT22;11207;59.512;18.050;2023-02-02T06:52:22;-2.10;99.90
22081;DHT22;11207;59.512;18.050;2023-02-02T06:54:47;-2.10;99.90
22081;DHT22;11207;59.512;18.050;2023-02-02T06:57:13;-2.10;99.90
22081;DHT22;11207;59.512;18.050;2023-02-02T06:59:38;-2.10;99.90
22081;DHT22;11207;59.512;18.050;2023-02-02T07:02:11;-2.00;99.90
22081;DHT22;11207;59.512;18.050;2023-02-02T07:04:37;-2.00;99.90
22081;DHT22;11207;59.512;18.050;2023-02-02T07:07:03;-2.00;99.90
22081;DHT22;11207;59.512;18.050;2023-02-02T07:09:32;-1.90;99.90
22081;DHT22;11207;59.512;18.050;2023-02-02T07:11:58;-2.00;99.90
22081;DHT22;11207;59.512;18.050;2023-02-02T07:14:23;-2.00;99.90
22081;DHT22;11207;59.512;18.050;2023-02-02T07:16:49;-1.90;99.90
22081;DHT22;11207;59.512;18.050;2023-02-02T07:19:15;-1.90;99.90
22081;DHT22;11207;59.512;18.050;2023-02-02T07:21:41;-1.90;99.90
22081;DHT22;11207;59.512;18.050;2023-02-02T07:24:06;-1.80;99.90
22081;DHT22;11207;59.512;18.050;2023-02-02T07:26:34;-1.80;99.90
22081;DHT22;11207;59.512;18.050;2023-02-02T07:29:00;-1.80;99.90
22081;DHT22;11207;59.512;18.050;2023-02-02T07:31:26;-1.80;99.90
22081;DHT22;11207;59.512;18.050;2023-02-02T07:33:52;-1.80;99.90
22081;DHT22;11207;59.512;18.050;2023-02-02T07:36:20;-1.80;99.90
22081;DHT22;11207;59.512;18.050;2023-02-02T07:38:47;-1.90;99.90
22081;DHT22;11207;59.512;18.050;2023-02-02T07:41:14;-1.90;99.90
22081;DHT22;11207;59.512;18.050;2023-02-02T07:43:40;-1.90;99.90
22081;DHT22;11207;59.512;18.050;2023-02-02T07:46:07;-1.90;99.90
22081;DHT22;11207;59.512;18.050;2023-02-02T07:48:34;-1.90;99.90
22081;DHT22;11207;59.512;18.050;2023-02-02T07:51:02;-1.90;99.90
22081;DHT22;11207;59.512;18.050;2023-02-02T07:53:28;-1.90;99.90
22081;DHT22;11207;59.512;18.050;2023-02-02T07:56:08;-1.90;99.90
22081;DHT22;11207;59.512;18.050;2023-02-02T07:58:33;-1.90;99.90
22081;DHT22;11207;59.512;18.050;2023-02-02T08:01:04;-1.90;99.90
22081;DHT22;11207;59.512;18.050;2023-02-02T08:03:31;-1.90;99.90
22081;DHT22;11207;59.512;18.050;2023-02-02T08:05:57;-2.00;99.90
22081;DHT22;11207;59.512;18.050;2023-02-02T08:08:26;-2.00;99.90
22081;DHT22;11207;59.512;18.050;2023-02-02T08:10:52;-2.10;99.90
22081;DHT22;11207;59.512;18.050;2023-02-02T08:13:19;-2.20;99.90
22081;DHT22;11207;59.512;18.050;2023-02-02T08:15:45;-2.30;99.90
22081;DHT22;11207;59.512;18.050;2023-02-02T08:18:11;-2.40;99.90
22081;DHT22;11207;59.512;18.050;2023-02-02T08:20:36;-2.40;99.90
22081;DHT22;11207;59.512;18.050;2023-02-02T08:23:02;-2.50;99.90
22081;DHT22;11207;59.512;18.050;2023-02-02T08:25:27;-2.60;99.90
22081;DHT22;11207;59.512;18.050;2023-02-02T08:27:54;-2.70;99.90
22081;DHT22;11207;59.512;18.050;2023-02-02T08:30:20;-2.70;99.90
22081;DHT22;11207;59.512;18.050;2023-02-02T08:32:45;-2.80;99.90
22081;DHT22;11207;59.512;18.050;2023-02-02T08:35:11;-2.80;99.90
22081;DHT22;11207;59.512;18.050;2023-02-02T08:37:37;-2.90;99.90
22081;DHT22;11207;59.512;18.050;2023-02-02T08:40:03;-2.90;99.90
22081;DHT22;11207;59.512;18.050;2023-02-02T08:42:29;-2.90;99.90
22081;DHT22;11207;59.512;18.050;2023-02-02T08:44:54;-2.90;99.90
22081;DHT22;11207;59.512;18.050;2023-02-02T08:47:20;-2.80;99.90
22081;DHT22;11207;59.512;18.050;2023-02-02T08:49:46;-2.80;99.90
22081;DHT22;11207;59.512;18.050;2023-02-02T08:52:11;-2.80;99.90
22081;DHT22;11207;59.512;18.050;2023-02-02T08:54:37;-2.80;99.90
22081;DHT22;11207;59.512;18.050;2023-02-02T08:57:03;-2.80;99.90
22081;DHT22;11207;59.512;18.050;2023-02-02T08:59:28;-2.80;99.90
22081;DHT22;11207;59.512;18.050;2023-02-02T09:01:54;-2.70;99.90
22081;DHT22;11207;59.512;18.050;2023-02-02T09:04:21;-2.70;99.90
22081;DHT22;11207;59.512;18.050;2023-02-02T09:06:46;-2.60;99.90
22081;DHT22;11207;59.512;18.050;2023-02-02T09:09:14;-2.50;99.90
22081;DHT22;11207;59.512;18.050;2023-02-02T09:11:40;-2.50;99.90
22081;DHT22;11207;59.512;18.050;2023-02-02T09:14:07;-2.50;99.90
22081;DHT22;11207;59.512;18.050;2023-02-02T09:16:35;-2.40;99.90
22081;DHT22;11207;59.512;18.050;2023-02-02T09:19:01;-2.30;99.90
22081;DHT22;11207;59.512;18.050;2023-02-02T09:21:27;-2.20;99.90
22081;DHT22;11207;59.512;18.050;2023-02-02T09:23:53;-2.20;99.90
22081;DHT22;11207;59.512;18.050;2023-02-02T09:26:21;-2.10;99.90
22081;DHT22;11207;59.512;18.050;2023-02-02T09:28:59;-2.00;99.90
22081;DHT22;11207;59.512;18.050;2023-02-02T09:31:32;-1.90;99.90
22081;DHT22;11207;59.512;18.050;2023-02-02T09:34:03;-1.80;99.90
22081;DHT22;11207;59.512;18.050;2023-02-02T09:36:29;-1.70;99.90
22081;DHT22;11207;59.512;18.050;2023-02-02T09:38:55;-1.60;99.90
22081;DHT22;11207;59.512;18.050;2023-02-02T09:52:06;-1.40;99.90
22081;DHT22;11207;59.512;18.050;2023-02-02T09:54:42;-1.40;99.90
22081;DHT22;11207;59.512;18.050;2023-02-02T09:57:18;-1.30;99.90
22081;DHT22;11207;59.512;18.050;2023-02-02T09:59:48;-1.30;99.90
22081;DHT22;11207;59.512;18.050;2023-02-02T10:02:35;-1.30;99.90
22081;DHT22;11207;59.512;18.050;2023-02-02T10:05:18;-1.30;99.90
22081;DHT22;11207;59.512;18.050;2023-02-02T10:07:49;-1.40;99.90
22081;DHT22;11207;59.512;18.050;2023-02-02T10:10:26;-1.60;99.90
22081;DHT22;11207;59.512;18.050;2023-02-02T10:12:59;-1.70;99.90
22081;DHT22;11207;59.512;18.050;2023-02-02T10:18:21;-1.50;99.90
22081;DHT22;11207;59.512;18.050;2023-02-02T10:20:50;-1.40;99.90
22081;DHT22;11207;59.512;18.050;2023-02-02T10:23:36;-1.30;99.90
22081;DHT22;11207;59.512;18.050;2023-02-02T10:34:27;-1.20;99.90
22081;DHT22;11207;59.512;18.050;2023-02-02T10:45:16;-1.10;99.90
22081;DHT22;11207;59.512;18.050;2023-02-02T10:47:42;-1.10;99.90
22081;DHT22;11207;59.512;18.050;2023-02-02T10:52:40;-1.00;99.90
22081;DHT22;11207;59.512;18.050;2023-02-02T10:55:25;-0.90;99.90
22081;DHT22;11207;59.512;18.050;2023-02-02T10:58:25;-0.90;99.90
22081;DHT22;11207;59.512;18.050;2023-02-02T11:00:54;-0.90;99.90
22081;DHT22;11207;59.512;18.050;2023-02-02T11:03:22;-0.90;99.90
22081;DHT22;11207;59.512;18.050;2023-02-02T11:05:50;-1.00;99.90
22081;DHT22;11207;59.512;18.050;2023-02-02T11:08:45;-1.10;99.90
22081;DHT22;11207;59.512;18.050;2023-02-02T11:11:21;-1.10;99.90
22081;DHT22;11207;59.512;18.050;2023-02-02T11:13:52;-1.10;99.90
22081;DHT22;11207;59.512;18.050;2023-02-02T11:16:21;-1.10;99.90
22081;DHT22;11207;59.512;18.050;2023-02-02T11:18:47;-1.00;99.90
22081;DHT22;11207;59.512;18.050;2023-02-02T11:24:10;-1.00;99.90
22081;DHT22;11207;59.512;18.050;2023-02-02T11:26:50;-1.00;99.90
22081;DHT22;11207;59.512;18.050;2023-02-02T11:31:50;-1.10;99.90
22081;DHT22;11207;59.512;18.050;2023-02-02T11:34:20;-1.10;99.90
22081;DHT22;11207;59.512;18.050;2023-02-02T11:39:26;-1.30;99.90
22081;DHT22;11207;59.512;18.050;2023-02-02T11:42:12;-1.30;99.90
22081;DHT22;11207;59.512;18.050;2023-02-02T11:44:39;-1.30;99.90
22081;DHT22;11207;59.512;18.050;2023-02-02T11:47:14;-1.30;99.90
22081;DHT22;11207;59.512;18.050;2023-02-02T11:49:42;-1.20;99.90
22081;DHT22;11207;59.512;18.050;2023-02-02T11:52:16;-1.20;99.90
22081;DHT22;11207;59.512;18.050;2023-02-02T11:54:47;-1.20;99.90
22081;DHT22;11207;59.512;18.050;2023-02-02T11:57:18;-1.10;99.90
22081;DHT22;11207;59.512;18.050;2023-02-02T11:59:44;-1.00;99.90
22081;DHT22;11207;59.512;18.050;2023-02-02T12:02:23;-0.90;99.90
22081;DHT22;11207;59.512;18.050;2023-02-02T12:04:51;-0.90;99.90
22081;DHT22;11207;59.512;18.050;2023-02-02T12:07:27;-0.70;99.90
22081;DHT22;11207;59.512;18.050;2023-02-02T12:09:57;-0.70;99.90
22081;DHT22;11207;59.512;18.050;2023-02-02T12:17:47;-0.40;99.90
22081;DHT22;11207;59.512;18.050;2023-02-02T12:20:28;-0.40;99.90
22081;DHT22;11207;59.512;18.050;2023-02-02T12:25:48;-0.50;99.90
22081;DHT22;11207;59.512;18.050;2023-02-02T12:31:36;-0.70;99.90
22081;DHT22;11207;59.512;18.050;2023-02-02T12:46:03;-0.80;99.90
22081;DHT22;11207;59.512;18.050;2023-02-02T12:54:52;-0.80;99.90
22081;DHT22;11207;59.512;18.050;2023-02-02T13:00:00;-0.90;99.90
22081;DHT22;11207;59.512;18.050;2023-02-02T13:02:31;-0.90;99.90
22081;DHT22;11207;59.512;18.050;2023-02-02T13:08:11;-1.00;99.90
22081;DHT22;11207;59.512;18.050;2023-02-02T13:10:45;-1.10;99.90
22081;DHT22;11207;59.512;18.050;2023-02-02T13:13:25;-1.10;99.90
22081;DHT22;11207;59.512;18.050;2023-02-02T13:16:01;-1.10;99.90
22081;DHT22;11207;59.512;18.050;2023-02-02T13:18:35;-1.10;99.90
22081;DHT22;11207;59.512;18.050;2023-02-02T13:21:05;-1.10;99.90
22081;DHT22;11207;59.512;18.050;2023-02-02T13:23:41;-1.10;99.90
22081;DHT22;11207;59.512;18.050;2023-02-02T13:26:23;-1.10;99.90
22081;DHT22;11207;59.512;18.050;2023-02-02T13:29:02;-1.10;99.90
22081;DHT22;11207;59.512;18.050;2023-02-02T13:31:34;-1.10;99.90
22081;DHT22;11207;59.512;18.050;2023-02-02T13:36:47;-1.00;99.90
22081;DHT22;11207;59.512;18.050;2023-02-02T13:39:23;-0.90;99.90
22081;DHT22;11207;59.512;18.050;2023-02-02T13:41:52;-0.90;99.90
22081;DHT22;11207;59.512;18.050;2023-02-02T13:44:34;-0.90;99.90
22081;DHT22;11207;59.512;18.050;2023-02-02T13:47:15;-0.80;99.90
22081;DHT22;11207;59.512;18.050;2023-02-02T13:49:47;-0.80;99.90
22081;DHT22;11207;59.512;18.050;2023-02-02T13:52:39;-0.90;99.90
22081;DHT22;11207;59.512;18.050;2023-02-02T14:06:15;-1.20;99.90
22081;DHT22;11207;59.512;18.050;2023-02-02T14:08:57;-1.30;99.90
22081;DHT22;11207;59.512;18.050;2023-02-02T14:11:34;-1.30;99.90
22081;DHT22;11207;59.512;18.050;2023-02-02T14:14:18;-1.30;99.90
22081;DHT22;11207;59.512;18.050;2023-02-02T14:17:06;-1.40;99.90
22081;DHT22;11207;59.512;18.050;2023-02-02T14:22:41;-1.60;99.90
22081;DHT22;11207;59.512;18.050;2023-02-02T14:28:07;-1.70;99.90
22081;DHT22;11207;59.512;18.050;2023-02-02T14:30:35;-1.70;99.90
22081;DHT22;11207;59.512;18.050;2023-02-02T14:33:38;-1.70;99.90
22081;DHT22;11207;59.512;18.050;2023-02-02T14:36:13;-1.80;99.90
22081;DHT22;11207;59.512;18.050;2023-02-02T14:39:03;-1.80;99.90
22081;DHT22;11207;59.512;18.050;2023-02-02T14:42:15;-1.80;99.90
22081;DHT22;11207;59.512;18.050;2023-02-02T14:47:52;-2.00;99.90
22081;DHT22;11207;59.512;18.050;2023-02-02T14:53:14;-2.10;99.90
22081;DHT22;11207;59.512;18.050;2023-02-02T14:56:01;-2.20;99.90
22081;DHT22;11207;59.512;18.050;2023-02-02T14:58:36;-2.20;99.90
22081;DHT22;11207;59.512;18.050;2023-02-02T15:01:12;-2.30;99.90
22081;DHT22;11207;59.512;18.050;2023-02-02T15:14:54;-2.50;99.90
22081;DHT22;11207;59.512;18.050;2023-02-02T15:23:06;-2.90;99.90
22081;DHT22;11207;59.512;18.050;2023-02-02T15:25:47;-2.90;99.90
22081;DHT22;11207;59.512;18.050;2023-02-02T15:28:37;-2.90;99.90
22081;DHT22;11207;59.512;18.050;2023-02-02T15:33:50;-3.10;99.90
22081;DHT22;11207;59.512;18.050;2023-02-02T15:36:34;-3.20;99.90
22081;DHT22;11207;59.512;18.050;2023-02-02T15:39:09;-3.30;99.90
22081;DHT22;11207;59.512;18.050;2023-02-02T15:41:43;-3.20;99.90
22081;DHT22;11207;59.512;18.050;2023-02-02T15:44:20;-3.30;99.90
22081;DHT22;11207;59.512;18.050;2023-02-02T15:46:47;-3.50;99.90
22081;DHT22;11207;59.512;18.050;2023-02-02T15:49:29;-3.50;99.90
22081;DHT22;11207;59.512;18.050;2023-02-02T15:51:58;-3.60;99.90
22081;DHT22;11207;59.512;18.050;2023-02-02T15:54:29;-3.60;99.90
22081;DHT22;11207;59.512;18.050;2023-02-02T15:56:59;-3.80;99.90
22081;DHT22;11207;59.512;18.050;2023-02-02T15:59:27;-4.00;99.90
22081;DHT22;11207;59.512;18.050;2023-02-02T16:02:20;-4.00;99.90
22081;DHT22;11207;59.512;18.050;2023-02-02T16:04:47;-4.10;99.90
22081;DHT22;11207;59.512;18.050;2023-02-02T16:07:18;-4.00;99.90
22081;DHT22;11207;59.512;18.050;2023-02-02T16:09:46;-4.00;99.90
22081;DHT22;11207;59.512;18.050;2023-02-02T16:12:17;-4.10;99.90
22081;DHT22;11207;59.512;18.050;2023-02-02T16:14:52;-4.10;99.90
22081;DHT22;11207;59.512;18.050;2023-02-02T16:17:23;-4.00;99.90
22081;DHT22;11207;59.512;18.050;2023-02-02T16:20:00;-4.10;99.90
22081;DHT22;11207;59.512;18.050;2023-02-02T16:22:27;-4.30;99.90
22081;DHT22;11207;59.512;18.050;2023-02-02T16:24:57;-4.40;99.90
22081;DHT22;11207;59.512;18.050;2023-02-02T16:27:25;-4.40;99.90
22081;DHT22;11207;59.512;18.050;2023-02-02T16:29:51;-4.50;99.90
22081;DHT22;11207;59.512;18.050;2023-02-02T16:32:37;-4.50;99.90
22081;DHT22;11207;59.512;18.050;2023-02-02T16:35:06;-4.50;99.90
22081;DHT22;11207;59.512;18.050;2023-02-02T16:37:47;-4.50;99.90
22081;DHT22;11207;59.512;18.050;2023-02-02T16:43:18;-4.70;99.90
22081;DHT22;11207;59.512;18.050;2023-02-02T16:46:14;-4.70;99.90
22081;DHT22;11207;59.512;18.050;2023-02-02T16:48:56;-4.70;99.90
22081;DHT22;11207;59.512;18.050;2023-02-02T16:51:26;-4.70;99.90
22081;DHT22;11207;59.512;18.050;2023-02-02T16:56:39;-4.80;99.90
22081;DHT22;11207;59.512;18.050;2023-02-02T16:59:21;-4.80;99.90
22081;DHT22;11207;59.512;18.050;2023-02-02T17:01:51;-4.80;99.90
22081;DHT22;11207;59.512;18.050;2023-02-02T17:04:24;-4.90;99.90
22081;DHT22;11207;59.512;18.050;2023-02-02T17:06:51;-4.90;99.90
22081;DHT22;11207;59.512;18.050;2023-02-02T17:09:34;-5.00;99.90
22081;DHT22;11207;59.512;18.050;2023-02-02T17:14:54;-4.90;99.90
22081;DHT22;11207;59.512;18.050;2023-02-02T17:17:22;-4.90;99.90
22081;DHT22;11207;59.512;18.050;2023-02-02T17:19:48;-5.00;99.90
22081;DHT22;11207;59.512;18.050;2023-02-02T17:22:15;-5.00;99.90
22081;DHT22;11207;59.512;18.050;2023-02-02T17:24:47;-5.00;99.90
22081;DHT22;11207;59.512;18.050;2023-02-02T17:27:16;-5.10;99.90
22081;DHT22;11207;59.512;18.050;2023-02-02T17:29:46;-5.20;99.90
22081;DHT22;11207;59.512;18.050;2023-02-02T17:32:12;-5.20;99.90
22081;DHT22;11207;59.512;18.050;2023-02-02T17:34:38;-5.10;99.90
22081;DHT22;11207;59.512;18.050;2023-02-02T17:37:04;-5.10;99.90
22081;DHT22;11207;59.512;18.050;2023-02-02T17:39:29;-5.10;99.90
22081;DHT22;11207;59.512;18.050;2023-02-02T17:41:55;-5.00;99.90
22081;DHT22;11207;59.512;18.050;2023-02-02T17:44:21;-5.00;99.90
22081;DHT22;11207;59.512;18.050;2023-02-02T17:46:47;-5.00;99.90
22081;DHT22;11207;59.512;18.050;2023-02-02T17:49:12;-4.90;99.90
22081;DHT22;11207;59.512;18.050;2023-02-02T17:51:38;-5.00;99.90
22081;DHT22;11207;59.512;18.050;2023-02-02T17:54:14;-5.10;99.90
22081;DHT22;11207;59.512;18.050;2023-02-02T17:56:41;-5.10;99.90
22081;DHT22;11207;59.512;18.050;2023-02-02T17:59:07;-5.00;99.90